sensor_id;sensor_type;location;lat;lon;timestamp;P1;durP1;ratioP1;P2;durP2;ratioP2
665;SDS011;315;48.738;9.126;2022-11-20T00:00:28;5.07;;;4.57;;
665;SDS011;315;48.738;9.126;2022-11-20T00:02:53;5.20;;;4.70;;
665;SDS011;315;48.738;9.126;2022-11-20T00:05:19;6.20;;;5.60;;
665;SDS011;315;48.738;9.126;2022-11-20T00:07:45;6.27;;;5.67;;
665;SDS011;315;48.738;9.126;2022-11-20T00:10:11;6.47;;;5.77;;
665;SDS011;315;48.738;9.126;2022-11-20T00:12:37;6.37;;;5.53;;
665;SDS011;315;48.738;9.126;2022-11-20T00:15:03;13.80;;;8.90;;
665;SDS011;315;48.738;9.126;2022-11-20T00:17:29;6.30;;;5.70;;
665;SDS011;315;48.738;9.126;2022-11-20T00:19:55;6.00;;;5.33;;
665;SDS011;315;48.738;9.126;2022-11-20T00:22:20;5.93;;;5.33;;
665;SDS011;315;48.738;9.126;2022-11-20T00:24:46;5.70;;;4.77;;
665;SDS011;315;48.738;9.126;2022-11-20T00:27:11;6.70;;;6.00;;
665;SDS011;315;48.738;9.126;2022-11-20T00:29:37;5.47;;;4.70;;
665;SDS011;315;48.738;9.126;2022-11-20T00:32:02;5.00;;;4.50;;
665;SDS011;315;48.738;9.126;2022-11-20T00:34:28;5.40;;;4.90;;
665;SDS011;315;48.738;9.126;2022-11-20T00:36:53;5.50;;;4.90;;
665;SDS011;315;48.738;9.126;2022-11-20T00:39:19;9.80;;;4.60;;
665;SDS011;315;48.738;9.126;2022-11-20T00:41:44;7.00;;;6.10;;
665;SDS011;315;48.738;9.126;2022-11-20T00:44:10;4.70;;;4.30;;
665;SDS011;315;48.738;9.126;2022-11-20T00:46:35;4.30;;;3.90;;
665;SDS011;315;48.738;9.126;2022-11-20T00:49:01;5.57;;;5.00;;
665;SDS011;315;48.738;9.126;2022-11-20T00:51:27;8.80;;;6.80;;
665;SDS011;315;48.738;9.126;2022-11-20T00:53:56;7.10;;;5.17;;
665;SDS011;315;48.738;9.126;2022-11-20T00:56:22;5.90;;;5.03;;
665;SDS011;315;48.738;9.126;2022-11-20T00:58:48;4.83;;;4.27;;
665;SDS011;315;48.738;9.126;2022-11-20T01:01:15;4.73;;;4.33;;
665;SDS011;315;48.738;9.126;2022-11-20T01:03:43;5.73;;;5.13;;
665;SDS011;315;48.738;9.126;2022-11-20T01:06:20;12.00;;;7.43;;
665;SDS011;315;48.738;9.126;2022-11-20T01:08:48;6.70;;;5.33;;
665;SDS011;315;48.738;9.126;2022-11-20T01:11:22;6.93;;;4.77;;
665;SDS011;315;48.738;9.126;2022-11-20T01:13:53;6.10;;;4.53;;
665;SDS011;315;48.738;9.126;2022-11-20T01:16:21;5.77;;;4.67;;
665;SDS011;315;48.738;9.126;2022-11-20T01:18:50;4.70;;;4.13;;
665;SDS011;315;48.738;9.126;2022-11-20T01:21:18;4.87;;;4.37;;
665;SDS011;315;48.738;9.126;2022-11-20T01:23:53;5.40;;;4.73;;
665;SDS011;315;48.738;9.126;2022-11-20T01:26:20;4.83;;;4.43;;
665;SDS011;315;48.738;9.126;2022-11-20T01:28:48;5.30;;;4.20;;
665;SDS011;315;48.738;9.126;2022-11-20T01:33:48;4.60;;;4.20;;
665;SDS011;315;48.738;9.126;2022-11-20T01:36:16;5.40;;;4.23;;
665;SDS011;315;48.738;9.126;2022-11-20T01:38:43;3.80;;;3.50;;
665;SDS011;315;48.738;9.126;2022-11-20T01:41:09;4.40;;;4.00;;
665;SDS011;315;48.738;9.126;2022-11-20T01:43:35;5.20;;;4.40;;
665;SDS011;315;48.738;9.126;2022-11-20T01:48:42;7.93;;;4.40;;
665;SDS011;315;48.738;9.126;2022-11-20T01:51:25;4.57;;;4.20;;
665;SDS011;315;48.738;9.126;2022-11-20T01:53:56;7.10;;;3.97;;
665;SDS011;315;48.738;9.126;2022-11-20T01:56:25;4.93;;;3.77;;
665;SDS011;315;48.738;9.126;2022-11-20T01:58:54;5.87;;;4.77;;
665;SDS011;315;48.738;9.126;2022-11-20T02:01:21;5.83;;;4.60;;
665;SDS011;315;48.738;9.126;2022-11-20T02:03:47;4.53;;;4.10;;
665;SDS011;315;48.738;9.126;2022-11-20T02:09:00;5.70;;;4.43;;
665;SDS011;315;48.738;9.126;2022-11-20T02:11:26;8.50;;;5.00;;
665;SDS011;315;48.738;9.126;2022-11-20T02:13:54;5.70;;;4.50;;
665;SDS011;315;48.738;9.126;2022-11-20T02:16:30;8.03;;;4.23;;
665;SDS011;315;48.738;9.126;2022-11-20T02:19:06;5.03;;;4.57;;
665;SDS011;315;48.738;9.126;2022-11-20T02:22:40;5.10;;;4.47;;
665;SDS011;315;48.738;9.126;2022-11-20T02:24:37;5.43;;;4.90;;
665;SDS011;315;48.738;9.126;2022-11-20T02:29:35;6.03;;;5.50;;
665;SDS011;315;48.738;9.126;2022-11-20T02:32:18;6.13;;;3.43;;
665;SDS011;315;48.738;9.126;2022-11-20T02:34:44;4.53;;;3.43;;
665;SDS011;315;48.738;9.126;2022-11-20T02:37:09;3.87;;;3.57;;
665;SDS011;315;48.738;9.126;2022-11-20T02:39:35;4.20;;;3.80;;
665;SDS011;315;48.738;9.126;2022-11-20T02:42:01;4.40;;;3.30;;
665;SDS011;315;48.738;9.126;2022-11-20T02:44:27;4.83;;;4.20;;
665;SDS011;315;48.738;9.126;2022-11-20T02:46:52;6.00;;;4.43;;
665;SDS011;315;48.738;9.126;2022-11-20T02:49:18;4.00;;;3.60;;
665;SDS011;315;48.738;9.126;2022-11-20T02:51:43;8.30;;;4.00;;
665;SDS011;315;48.738;9.126;2022-11-20T02:54:09;7.13;;;4.47;;
665;SDS011;315;48.738;9.126;2022-11-20T02:56:34;4.17;;;3.87;;
665;SDS011;315;48.738;9.126;2022-11-20T02:59:03;4.17;;;3.87;;
665;SDS011;315;48.738;9.126;2022-11-20T03:01:29;5.67;;;5.10;;
665;SDS011;315;48.738;9.126;2022-11-20T03:03:54;5.57;;;4.87;;
665;SDS011;315;48.738;9.126;2022-11-20T03:06:21;7.23;;;5.83;;
665;SDS011;315;48.738;9.126;2022-11-20T03:08:47;6.10;;;5.50;;
665;SDS011;315;48.738;9.126;2022-11-20T03:11:12;5.73;;;5.13;;
665;SDS011;315;48.738;9.126;2022-11-20T03:13:38;5.70;;;5.20;;
665;SDS011;315;48.738;9.126;2022-11-20T03:16:11;5.60;;;4.67;;
665;SDS011;315;48.738;9.126;2022-11-20T03:18:40;7.50;;;5.07;;
665;SDS011;315;48.738;9.126;2022-11-20T03:21:06;7.77;;;5.67;;
665;SDS011;315;48.738;9.126;2022-11-20T03:23:33;5.80;;;4.90;;
665;SDS011;315;48.738;9.126;2022-11-20T03:26:09;6.23;;;5.73;;
665;SDS011;315;48.738;9.126;2022-11-20T03:28:35;5.57;;;4.30;;
665;SDS011;315;48.738;9.126;2022-11-20T03:31:13;5.90;;;5.30;;
665;SDS011;315;48.738;9.126;2022-11-20T03:33:40;5.73;;;4.60;;
665;SDS011;315;48.738;9.126;2022-11-20T03:36:11;6.60;;;4.83;;
665;SDS011;315;48.738;9.126;2022-11-20T03:38:37;4.97;;;4.50;;
665;SDS011;315;48.738;9.126;2022-11-20T03:41:04;5.63;;;5.03;;
665;SDS011;315;48.738;9.126;2022-11-20T03:43:32;7.43;;;5.77;;
665;SDS011;315;48.738;9.126;2022-11-20T03:45:58;7.17;;;5.03;;
665;SDS011;315;48.738;9.126;2022-11-20T03:48:24;6.13;;;5.10;;
665;SDS011;315;48.738;9.126;2022-11-20T03:50:50;5.70;;;5.10;;
665;SDS011;315;48.738;9.126;2022-11-20T03:53:17;6.87;;;4.80;;
665;SDS011;315;48.738;9.126;2022-11-20T03:55:44;8.90;;;6.40;;
665;SDS011;315;48.738;9.126;2022-11-20T03:58:14;5.70;;;5.10;;
665;SDS011;315;48.738;9.126;2022-11-20T04:00:40;6.40;;;5.53;;
665;SDS011;315;48.738;9.126;2022-11-20T04:03:05;5.40;;;4.90;;
665;SDS011;315;48.738;9.126;2022-11-20T04:05:32;7.50;;;5.87;;
665;SDS011;315;48.738;9.126;2022-11-20T04:07:58;7.13;;;5.33;;
665;SDS011;315;48.738;9.126;2022-11-20T04:10:24;6.20;;;5.60;;
665;SDS011;315;48.738;9.126;2022-11-20T04:12:50;5.80;;;5.20;;
665;SDS011;315;48.738;9.126;2022-11-20T04:15:15;6.13;;;5.53;;
665;SDS011;315;48.738;9.126;2022-11-20T04:17:41;6.07;;;5.43;;
665;SDS011;315;48.738;9.126;2022-11-20T04:20:07;5.43;;;4.60;;
665;SDS011;315;48.738;9.126;2022-11-20T04:22:33;6.03;;;4.93;;
665;SDS011;315;48.738;9.126;2022-11-20T04:24:58;7.73;;;4.83;;
665;SDS011;315;48.738;9.126;2022-11-20T04:27:24;5.37;;;4.63;;
665;SDS011;315;48.738;9.126;2022-11-20T04:29:49;7.97;;;5.27;;
665;SDS011;315;48.738;9.126;2022-11-20T04:32:14;5.60;;;5.03;;
665;SDS011;315;48.738;9.126;2022-11-20T04:34:40;6.40;;;5.80;;
665;SDS011;315;48.738;9.126;2022-11-20T04:37:05;6.90;;;5.40;;
665;SDS011;315;48.738;9.126;2022-11-20T04:39:31;6.10;;;5.07;;
665;SDS011;315;48.738;9.126;2022-11-20T04:41:56;7.17;;;5.73;;
665;SDS011;315;48.738;9.126;2022-11-20T04:44:41;6.53;;;5.13;;
665;SDS011;315;48.738;9.126;2022-11-20T04:47:06;7.17;;;5.83;;
665;SDS011;315;48.738;9.126;2022-11-20T04:49:32;5.33;;;4.83;;
665;SDS011;315;48.738;9.126;2022-11-20T04:51:58;6.60;;;4.70;;
665;SDS011;315;48.738;9.126;2022-11-20T04:54:24;5.87;;;5.27;;
665;SDS011;315;48.738;9.126;2022-11-20T04:56:49;6.40;;;5.00;;
665;SDS011;315;48.738;9.126;2022-11-20T04:59:15;5.87;;;4.93;;
665;SDS011;315;48.738;9.126;2022-11-20T05:01:41;6.27;;;4.37;;
665;SDS011;315;48.738;9.126;2022-11-20T05:04:07;6.77;;;4.83;;
665;SDS011;315;48.738;9.126;2022-11-20T05:06:32;5.50;;;5.00;;
665;SDS011;315;48.738;9.126;2022-11-20T05:08:58;5.70;;;5.20;;
665;SDS011;315;48.738;9.126;2022-11-20T05:11:24;6.00;;;5.40;;
665;SDS011;315;48.738;9.126;2022-11-20T05:13:50;6.37;;;5.50;;
665;SDS011;315;48.738;9.126;2022-11-20T05:16:25;5.40;;;4.60;;
665;SDS011;315;48.738;9.126;2022-11-20T05:18:52;7.73;;;5.03;;
665;SDS011;315;48.738;9.126;2022-11-20T05:21:19;5.20;;;4.53;;
665;SDS011;315;48.738;9.126;2022-11-20T05:23:45;6.80;;;5.30;;
665;SDS011;315;48.738;9.126;2022-11-20T05:26:16;6.10;;;5.50;;
665;SDS011;315;48.738;9.126;2022-11-20T05:28:43;6.00;;;4.97;;
665;SDS011;315;48.738;9.126;2022-11-20T05:31:19;4.90;;;4.50;;
665;SDS011;315;48.738;9.126;2022-11-20T05:33:47;5.67;;;4.80;;
665;SDS011;315;48.738;9.126;2022-11-20T05:36:14;4.30;;;3.77;;
665;SDS011;315;48.738;9.126;2022-11-20T05:38:40;5.10;;;4.00;;
665;SDS011;315;48.738;9.126;2022-11-20T05:41:06;4.80;;;4.40;;
665;SDS011;315;48.738;9.126;2022-11-20T05:43:40;5.03;;;4.57;;
665;SDS011;315;48.738;9.126;2022-11-20T05:46:07;4.80;;;4.40;;
665;SDS011;315;48.738;9.126;2022-11-20T05:48:35;5.10;;;4.70;;
665;SDS011;315;48.738;9.126;2022-11-20T05:51:02;6.20;;;4.63;;
665;SDS011;315;48.738;9.126;2022-11-20T05:53:29;5.70;;;4.77;;
665;SDS011;315;48.738;9.126;2022-11-20T05:56:00;4.60;;;4.20;;
665;SDS011;315;48.738;9.126;2022-11-20T05:58:27;5.70;;;3.77;;
665;SDS011;315;48.738;9.126;2022-11-20T06:00:53;5.23;;;4.57;;
665;SDS011;315;48.738;9.126;2022-11-20T06:03:20;4.50;;;4.07;;
665;SDS011;315;48.738;9.126;2022-11-20T06:05:45;5.67;;;4.07;;
665;SDS011;315;48.738;9.126;2022-11-20T06:08:11;3.57;;;3.27;;
665;SDS011;315;48.738;9.126;2022-11-20T06:10:37;3.73;;;3.30;;
665;SDS011;315;48.738;9.126;2022-11-20T06:13:02;4.20;;;3.73;;
665;SDS011;315;48.738;9.126;2022-11-20T06:15:28;4.57;;;3.93;;
665;SDS011;315;48.738;9.126;2022-11-20T06:17:53;4.23;;;3.93;;
665;SDS011;315;48.738;9.126;2022-11-20T06:20:20;3.97;;;3.43;;
665;SDS011;315;48.738;9.126;2022-11-20T06:22:46;3.93;;;3.63;;
665;SDS011;315;48.738;9.126;2022-11-20T06:25:12;4.73;;;3.70;;
665;SDS011;315;48.738;9.126;2022-11-20T06:27:38;3.80;;;3.37;;
665;SDS011;315;48.738;9.126;2022-11-20T06:30:04;3.80;;;3.33;;
665;SDS011;315;48.738;9.126;2022-11-20T06:32:30;4.27;;;3.87;;
665;SDS011;315;48.738;9.126;2022-11-20T06:34:55;4.20;;;3.43;;
665;SDS011;315;48.738;9.126;2022-11-20T06:37:21;4.50;;;3.80;;
665;SDS011;315;48.738;9.126;2022-11-20T06:39:46;3.37;;;3.03;;
665;SDS011;315;48.738;9.126;2022-11-20T06:42:12;6.00;;;3.90;;
665;SDS011;315;48.738;9.126;2022-11-20T06:44:37;4.37;;;3.13;;
665;SDS011;315;48.738;9.126;2022-11-20T06:47:03;3.90;;;3.47;;
665;SDS011;315;48.738;9.126;2022-11-20T06:49:29;5.83;;;3.23;;
665;SDS011;315;48.738;9.126;2022-11-20T06:51:54;3.70;;;3.40;;
665;SDS011;315;48.738;9.126;2022-11-20T06:54:20;5.00;;;3.97;;
665;SDS011;315;48.738;9.126;2022-11-20T06:56:48;4.80;;;3.67;;
665;SDS011;315;48.738;9.126;2022-11-20T06:59:14;4.83;;;4.33;;
665;SDS011;315;48.738;9.126;2022-11-20T07:01:39;4.97;;;3.93;;
665;SDS011;315;48.738;9.126;2022-11-20T07:04:05;4.03;;;3.70;;
665;SDS011;315;48.738;9.126;2022-11-20T07:06:30;3.33;;;3.00;;
665;SDS011;315;48.738;9.126;2022-11-20T07:08:56;4.70;;;3.80;;
665;SDS011;315;48.738;9.126;2022-11-20T07:11:24;4.87;;;4.10;;
665;SDS011;315;48.738;9.126;2022-11-20T07:13:49;6.70;;;3.97;;
665;SDS011;315;48.738;9.126;2022-11-20T07:16:15;5.00;;;3.83;;
665;SDS011;315;48.738;9.126;2022-11-20T07:18:41;5.30;;;4.80;;
665;SDS011;315;48.738;9.126;2022-11-20T07:21:07;4.57;;;3.90;;
665;SDS011;315;48.738;9.126;2022-11-20T07:23:34;4.77;;;4.17;;
665;SDS011;315;48.738;9.126;2022-11-20T07:26:07;4.50;;;4.10;;
665;SDS011;315;48.738;9.126;2022-11-20T07:28:35;3.80;;;3.40;;
665;SDS011;315;48.738;9.126;2022-11-20T07:31:01;3.80;;;3.50;;
665;SDS011;315;48.738;9.126;2022-11-20T07:33:26;3.43;;;3.13;;
665;SDS011;315;48.738;9.126;2022-11-20T07:35:52;3.60;;;3.30;;
665;SDS011;315;48.738;9.126;2022-11-20T07:38:17;4.00;;;3.70;;
665;SDS011;315;48.738;9.126;2022-11-20T07:40:43;3.50;;;3.20;;
665;SDS011;315;48.738;9.126;2022-11-20T07:43:08;5.43;;;2.73;;
665;SDS011;315;48.738;9.126;2022-11-20T07:45:34;3.03;;;2.70;;
665;SDS011;315;48.738;9.126;2022-11-20T07:47:59;3.20;;;2.90;;
665;SDS011;315;48.738;9.126;2022-11-20T07:50:25;3.70;;;3.50;;
665;SDS011;315;48.738;9.126;2022-11-20T07:52:51;5.40;;;4.07;;
665;SDS011;315;48.738;9.126;2022-11-20T07:55:17;2.80;;;2.60;;
665;SDS011;315;48.738;9.126;2022-11-20T07:57:42;3.90;;;2.97;;
665;SDS011;315;48.738;9.126;2022-11-20T08:00:09;3.13;;;2.83;;
665;SDS011;315;48.738;9.126;2022-11-20T08:02:39;4.47;;;4.07;;
665;SDS011;315;48.738;9.126;2022-11-20T08:05:06;3.57;;;2.40;;
665;SDS011;315;48.738;9.126;2022-11-20T08:07:36;3.17;;;2.70;;
665;SDS011;315;48.738;9.126;2022-11-20T08:10:02;4.23;;;3.83;;
665;SDS011;315;48.738;9.126;2022-11-20T08:12:28;3.30;;;3.00;;
665;SDS011;315;48.738;9.126;2022-11-20T08:15:12;3.27;;;3.00;;
665;SDS011;315;48.738;9.126;2022-11-20T08:17:38;3.57;;;2.30;;
665;SDS011;315;48.738;9.126;2022-11-20T08:20:03;3.03;;;2.60;;
665;SDS011;315;48.738;9.126;2022-11-20T08:22:29;4.10;;;3.50;;
665;SDS011;315;48.738;9.126;2022-11-20T08:24:55;3.70;;;3.27;;
665;SDS011;315;48.738;9.126;2022-11-20T08:27:20;3.10;;;2.53;;
665;SDS011;315;48.738;9.126;2022-11-20T08:29:46;2.43;;;2.30;;
665;SDS011;315;48.738;9.126;2022-11-20T08:32:11;7.43;;;4.10;;
665;SDS011;315;48.738;9.126;2022-11-20T08:34:37;4.87;;;3.90;;
665;SDS011;315;48.738;9.126;2022-11-20T08:37:02;3.37;;;3.07;;
665;SDS011;315;48.738;9.126;2022-11-20T08:39:28;3.13;;;2.70;;
665;SDS011;315;48.738;9.126;2022-11-20T08:41:53;3.00;;;2.80;;
665;SDS011;315;48.738;9.126;2022-11-20T08:44:19;2.83;;;2.63;;
665;SDS011;315;48.738;9.126;2022-11-20T08:46:44;5.67;;;5.27;;
665;SDS011;315;48.738;9.126;2022-11-20T08:49:12;3.63;;;3.33;;
665;SDS011;315;48.738;9.126;2022-11-20T08:51:39;3.70;;;2.67;;
665;SDS011;315;48.738;9.126;2022-11-20T08:54:05;3.27;;;3.00;;
665;SDS011;315;48.738;9.126;2022-11-20T08:56:31;4.10;;;3.70;;
665;SDS011;315;48.738;9.126;2022-11-20T08:58:56;3.00;;;2.57;;
665;SDS011;315;48.738;9.126;2022-11-20T09:01:24;2.17;;;1.90;;
665;SDS011;315;48.738;9.126;2022-11-20T09:03:50;2.80;;;2.53;;
665;SDS011;315;48.738;9.126;2022-11-20T09:06:15;2.67;;;2.30;;
665;SDS011;315;48.738;9.126;2022-11-20T09:08:41;2.03;;;1.93;;
665;SDS011;315;48.738;9.126;2022-11-20T09:11:07;2.00;;;1.90;;
665;SDS011;315;48.738;9.126;2022-11-20T09:13:33;2.77;;;2.57;;
665;SDS011;315;48.738;9.126;2022-11-20T09:16:00;2.73;;;2.50;;
665;SDS011;315;48.738;9.126;2022-11-20T09:18:28;2.33;;;2.13;;
665;SDS011;315;48.738;9.126;2022-11-20T09:20:57;2.17;;;2.03;;
665;SDS011;315;48.738;9.126;2022-11-20T09:23:26;3.70;;;3.00;;
665;SDS011;315;48.738;9.126;2022-11-20T09:25:55;3.07;;;1.83;;
665;SDS011;315;48.738;9.126;2022-11-20T09:28:24;2.20;;;1.87;;
665;SDS011;315;48.738;9.126;2022-11-20T09:30:50;1.80;;;1.70;;
665;SDS011;315;48.738;9.126;2022-11-20T09:33:16;2.03;;;1.80;;
665;SDS011;315;48.738;9.126;2022-11-20T09:35:42;2.53;;;1.97;;
665;SDS011;315;48.738;9.126;2022-11-20T09:38:08;2.17;;;1.97;;
665;SDS011;315;48.738;9.126;2022-11-20T09:40:35;2.23;;;2.03;;
665;SDS011;315;48.738;9.126;2022-11-20T09:43:07;2.10;;;1.80;;
665;SDS011;315;48.738;9.126;2022-11-20T09:53:52;3.50;;;2.03;;
665;SDS011;315;48.738;9.126;2022-11-20T09:56:30;3.40;;;2.30;;
665;SDS011;315;48.738;9.126;2022-11-20T09:58:59;2.10;;;1.87;;
665;SDS011;315;48.738;9.126;2022-11-20T10:01:30;2.40;;;1.73;;
665;SDS011;315;48.738;9.126;2022-11-20T10:04:12;1.60;;;1.50;;
665;SDS011;315;48.738;9.126;2022-11-20T10:09:31;3.10;;;1.50;;
665;SDS011;315;48.738;9.126;2022-11-20T10:14:54;2.10;;;1.90;;
665;SDS011;315;48.738;9.126;2022-11-20T10:17:44;1.67;;;1.40;;
665;SDS011;315;48.738;9.126;2022-11-20T10:28:16;2.50;;;2.30;;
665;SDS011;315;48.738;9.126;2022-11-20T10:31:02;2.27;;;2.10;;
665;SDS011;315;48.738;9.126;2022-11-20T10:33:33;2.20;;;2.00;;
665;SDS011;315;48.738;9.126;2022-11-20T10:36:08;2.13;;;1.93;;
665;SDS011;315;48.738;9.126;2022-11-20T10:38:45;2.20;;;2.10;;
665;SDS011;315;48.738;9.126;2022-11-20T10:41:20;2.33;;;2.10;;
665;SDS011;315;48.738;9.126;2022-11-20T10:43:51;2.20;;;2.00;;
665;SDS011;315;48.738;9.126;2022-11-20T10:46:33;2.30;;;1.60;;
665;SDS011;315;48.738;9.126;2022-11-20T10:49:04;2.10;;;1.90;;
665;SDS011;315;48.738;9.126;2022-11-20T10:54:29;1.83;;;1.73;;
665;SDS011;315;48.738;9.126;2022-11-20T10:57:07;2.47;;;2.27;;
665;SDS011;315;48.738;9.126;2022-11-20T11:00:02;2.40;;;2.03;;
665;SDS011;315;48.738;9.126;2022-11-20T11:02:35;1.70;;;1.60;;
665;SDS011;315;48.738;9.126;2022-11-20T11:07:45;2.37;;;2.17;;
665;SDS011;315;48.738;9.126;2022-11-20T11:10:33;2.63;;;2.43;;
665;SDS011;315;48.738;9.126;2022-11-20T11:13:01;2.40;;;2.20;;
665;SDS011;315;48.738;9.126;2022-11-20T11:15:35;2.07;;;1.97;;
665;SDS011;315;48.738;9.126;2022-11-20T11:18:01;3.13;;;2.70;;
665;SDS011;315;48.738;9.126;2022-11-20T11:20:27;2.50;;;2.27;;
665;SDS011;315;48.738;9.126;2022-11-20T11:22:53;2.63;;;2.43;;
665;SDS011;315;48.738;9.126;2022-11-20T11:27:51;2.83;;;2.53;;
665;SDS011;315;48.738;9.126;2022-11-20T11:30:18;2.50;;;2.30;;
665;SDS011;315;48.738;9.126;2022-11-20T11:32:45;2.13;;;1.60;;
665;SDS011;315;48.738;9.126;2022-11-20T11:35:19;3.30;;;2.17;;
665;SDS011;315;48.738;9.126;2022-11-20T11:37:45;2.07;;;1.97;;
665;SDS011;315;48.738;9.126;2022-11-20T11:40:12;2.80;;;2.10;;
665;SDS011;315;48.738;9.126;2022-11-20T11:42:46;3.97;;;3.23;;
665;SDS011;315;48.738;9.126;2022-11-20T11:45:26;10.50;;;4.30;;
665;SDS011;315;48.738;9.126;2022-11-20T11:47:52;2.13;;;1.93;;
665;SDS011;315;48.738;9.126;2022-11-20T11:50:24;2.90;;;1.87;;
665;SDS011;315;48.738;9.126;2022-11-20T11:52:55;2.00;;;1.90;;
665;SDS011;315;48.738;9.126;2022-11-20T11:55:42;2.43;;;1.73;;
665;SDS011;315;48.738;9.126;2022-11-20T12:00:45;2.00;;;1.80;;
665;SDS011;315;48.738;9.126;2022-11-20T12:03:36;1.63;;;1.53;;
665;SDS011;315;48.738;9.126;2022-11-20T12:06:10;1.90;;;1.17;;
665;SDS011;315;48.738;9.126;2022-11-20T12:08:49;2.50;;;1.43;;
665;SDS011;315;48.738;9.126;2022-11-20T12:11:29;2.43;;;2.00;;
665;SDS011;315;48.738;9.126;2022-11-20T12:14:09;1.57;;;1.43;;
665;SDS011;315;48.738;9.126;2022-11-20T12:16:48;2.60;;;1.97;;
665;SDS011;315;48.738;9.126;2022-11-20T12:19:15;2.40;;;2.20;;
665;SDS011;315;48.738;9.126;2022-11-20T12:24:27;1.90;;;1.50;;
665;SDS011;315;48.738;9.126;2022-11-20T12:37:48;1.50;;;1.40;;
665;SDS011;315;48.738;9.126;2022-11-20T12:40:33;3.77;;;2.20;;
665;SDS011;315;48.738;9.126;2022-11-20T12:43:22;1.77;;;1.67;;
665;SDS011;315;48.738;9.126;2022-11-20T12:46:17;2.30;;;1.37;;
665;SDS011;315;48.738;9.126;2022-11-20T12:51:37;2.10;;;1.83;;
665;SDS011;315;48.738;9.126;2022-11-20T12:59:49;1.70;;;1.40;;
665;SDS011;315;48.738;9.126;2022-11-20T13:02:41;2.80;;;1.70;;
665;SDS011;315;48.738;9.126;2022-11-20T13:16:20;1.27;;;1.17;;
665;SDS011;315;48.738;9.126;2022-11-20T13:18:55;4.13;;;3.07;;
665;SDS011;315;48.738;9.126;2022-11-20T13:21:37;4.50;;;1.33;;
665;SDS011;315;48.738;9.126;2022-11-20T13:24:05;1.60;;;1.40;;
665;SDS011;315;48.738;9.126;2022-11-20T13:29:33;1.90;;;1.43;;
665;SDS011;315;48.738;9.126;2022-11-20T13:32:04;1.73;;;1.47;;
665;SDS011;315;48.738;9.126;2022-11-20T13:34:50;1.63;;;1.07;;
665;SDS011;315;48.738;9.126;2022-11-20T13:37:36;3.17;;;1.67;;
665;SDS011;315;48.738;9.126;2022-11-20T13:42:35;1.60;;;1.20;;
665;SDS011;315;48.738;9.126;2022-11-20T13:45:10;3.20;;;1.43;;
665;SDS011;315;48.738;9.126;2022-11-20T13:47:47;1.43;;;1.27;;
665;SDS011;315;48.738;9.126;2022-11-20T13:50:14;4.20;;;2.00;;
665;SDS011;315;48.738;9.126;2022-11-20T14:00:58;3.10;;;1.90;;
665;SDS011;315;48.738;9.126;2022-11-20T14:03:32;1.53;;;1.43;;
665;SDS011;315;48.738;9.126;2022-11-20T14:06:03;3.07;;;2.43;;
665;SDS011;315;48.738;9.126;2022-11-20T14:08:42;1.80;;;1.50;;
665;SDS011;315;48.738;9.126;2022-11-20T14:11:15;1.93;;;1.60;;
665;SDS011;315;48.738;9.126;2022-11-20T14:16:36;2.03;;;1.60;;
665;SDS011;315;48.738;9.126;2022-11-20T14:21:49;3.20;;;1.57;;
665;SDS011;315;48.738;9.126;2022-11-20T14:24:36;2.20;;;1.17;;
665;SDS011;315;48.738;9.126;2022-11-20T14:27:02;7.20;;;1.37;;
665;SDS011;315;48.738;9.126;2022-11-20T14:29:28;1.90;;;1.40;;
665;SDS011;315;48.738;9.126;2022-11-20T14:31:59;2.30;;;1.73;;
665;SDS011;315;48.738;9.126;2022-11-20T14:34:27;1.67;;;1.30;;
665;SDS011;315;48.738;9.126;2022-11-20T14:36:57;3.37;;;1.83;;
665;SDS011;315;48.738;9.126;2022-11-20T14:39:31;1.57;;;1.33;;
665;SDS011;315;48.738;9.126;2022-11-20T14:42:14;4.10;;;1.67;;
665;SDS011;315;48.738;9.126;2022-11-20T14:44:41;2.23;;;1.50;;
665;SDS011;315;48.738;9.126;2022-11-20T14:47:08;3.17;;;1.97;;
665;SDS011;315;48.738;9.126;2022-11-20T14:49:42;1.87;;;1.57;;
665;SDS011;315;48.738;9.126;2022-11-20T14:54:56;2.60;;;2.10;;
665;SDS011;315;48.738;9.126;2022-11-20T15:00:33;2.63;;;1.90;;
665;SDS011;315;48.738;9.126;2022-11-20T15:02:52;3.10;;;1.83;;
665;SDS011;315;48.738;9.126;2022-11-20T15:05:19;6.77;;;1.90;;
665;SDS011;315;48.738;9.126;2022-11-20T15:07:51;2.37;;;2.20;;
665;SDS011;315;48.738;9.126;2022-11-20T15:10:30;3.03;;;1.90;;
665;SDS011;315;48.738;9.126;2022-11-20T15:12:59;4.07;;;2.63;;
665;SDS011;315;48.738;9.126;2022-11-20T15:15:31;4.03;;;2.00;;
665;SDS011;315;48.738;9.126;2022-11-20T15:18:00;3.50;;;2.07;;
665;SDS011;315;48.738;9.126;2022-11-20T15:20:27;3.17;;;1.53;;
665;SDS011;315;48.738;9.126;2022-11-20T15:22:56;2.73;;;1.70;;
665;SDS011;315;48.738;9.126;2022-11-20T15:25:21;1.80;;;1.70;;
665;SDS011;315;48.738;9.126;2022-11-20T15:27:49;2.20;;;2.00;;
665;SDS011;315;48.738;9.126;2022-11-20T15:30:22;1.73;;;1.50;;
665;SDS011;315;48.738;9.126;2022-11-20T15:32:48;2.07;;;1.97;;
665;SDS011;315;48.738;9.126;2022-11-20T15:35:14;2.63;;;1.70;;
665;SDS011;315;48.738;9.126;2022-11-20T15:37:40;4.67;;;3.50;;
665;SDS011;315;48.738;9.126;2022-11-20T15:40:06;2.13;;;1.93;;
665;SDS011;315;48.738;9.126;2022-11-20T15:42:32;2.80;;;2.47;;
665;SDS011;315;48.738;9.126;2022-11-20T15:44:58;2.10;;;1.53;;
665;SDS011;315;48.738;9.126;2022-11-20T15:47:28;3.90;;;2.93;;
665;SDS011;315;48.738;9.126;2022-11-20T15:49:56;5.03;;;1.80;;
665;SDS011;315;48.738;9.126;2022-11-20T15:52:22;2.30;;;2.10;;
665;SDS011;315;48.738;9.126;2022-11-20T15:54:47;3.23;;;2.17;;
665;SDS011;315;48.738;9.126;2022-11-20T15:57:13;1.67;;;1.47;;
665;SDS011;315;48.738;9.126;2022-11-20T15:59:39;7.90;;;2.67;;
665;SDS011;315;48.738;9.126;2022-11-20T16:02:12;2.27;;;2.07;;
665;SDS011;315;48.738;9.126;2022-11-20T16:04:39;2.07;;;1.87;;
665;SDS011;315;48.738;9.126;2022-11-20T16:07:05;2.60;;;2.33;;
665;SDS011;315;48.738;9.126;2022-11-20T16:09:31;2.43;;;1.70;;
665;SDS011;315;48.738;9.126;2022-11-20T16:11:56;3.00;;;2.07;;
665;SDS011;315;48.738;9.126;2022-11-20T16:14:24;2.50;;;1.50;;
665;SDS011;315;48.738;9.126;2022-11-20T16:17:09;2.50;;;2.30;;
665;SDS011;315;48.738;9.126;2022-11-20T16:19:35;2.93;;;1.83;;
665;SDS011;315;48.738;9.126;2022-11-20T16:22:00;3.43;;;2.60;;
665;SDS011;315;48.738;9.126;2022-11-20T16:24:26;2.23;;;2.03;;
665;SDS011;315;48.738;9.126;2022-11-20T16:26:55;5.20;;;2.43;;
665;SDS011;315;48.738;9.126;2022-11-20T16:29:21;1.80;;;1.70;;
665;SDS011;315;48.738;9.126;2022-11-20T16:31:47;3.27;;;2.30;;
665;SDS011;315;48.738;9.126;2022-11-20T16:34:15;4.90;;;2.60;;
665;SDS011;315;48.738;9.126;2022-11-20T16:36:41;4.13;;;3.50;;
665;SDS011;315;48.738;9.126;2022-11-20T16:39:08;2.70;;;2.50;;
665;SDS011;315;48.738;9.126;2022-11-20T16:41:34;4.30;;;3.83;;
665;SDS011;315;48.738;9.126;2022-11-20T16:44:01;3.60;;;3.30;;
665;SDS011;315;48.738;9.126;2022-11-20T16:46:31;6.10;;;3.30;;
665;SDS011;315;48.738;9.126;2022-11-20T16:49:03;5.23;;;3.43;;
665;SDS011;315;48.738;9.126;2022-11-20T16:51:33;3.70;;;3.40;;
665;SDS011;315;48.738;9.126;2022-11-20T16:54:06;3.50;;;2.87;;
665;SDS011;315;48.738;9.126;2022-11-20T16:56:32;3.03;;;2.50;;
665;SDS011;315;48.738;9.126;2022-11-20T16:58:59;4.73;;;2.60;;
665;SDS011;315;48.738;9.126;2022-11-20T17:01:26;2.87;;;2.60;;
665;SDS011;315;48.738;9.126;2022-11-20T17:03:59;6.93;;;3.20;;
665;SDS011;315;48.738;9.126;2022-11-20T17:06:27;3.93;;;2.43;;
665;SDS011;315;48.738;9.126;2022-11-20T17:08:58;2.60;;;2.37;;
665;SDS011;315;48.738;9.126;2022-11-20T17:11:24;3.03;;;2.73;;
665;SDS011;315;48.738;9.126;2022-11-20T17:13:50;3.87;;;2.70;;
665;SDS011;315;48.738;9.126;2022-11-20T17:16:17;3.97;;;2.90;;
665;SDS011;315;48.738;9.126;2022-11-20T17:18:44;2.97;;;2.37;;
665;SDS011;315;48.738;9.126;2022-11-20T17:21:11;2.43;;;2.23;;
665;SDS011;315;48.738;9.126;2022-11-20T17:23:38;5.50;;;3.30;;
665;SDS011;315;48.738;9.126;2022-11-20T17:26:09;3.47;;;3.00;;
665;SDS011;315;48.738;9.126;2022-11-20T17:28:38;2.97;;;2.77;;
665;SDS011;315;48.738;9.126;2022-11-20T17:31:12;10.50;;;3.07;;
665;SDS011;315;48.738;9.126;2022-11-20T17:33:41;2.80;;;2.60;;
665;SDS011;315;48.738;9.126;2022-11-20T17:36:09;10.93;;;3.87;;